Accueil
METAR-TAF:

METAR-TAF

Aéroports :

Aéroport de Catane-Fontanarossa

Catane, Italie

latitude: 37-28N, longitude: 015-03E, altitude: 11 m

Observation

Le bulletin a été fait il y a 25 minutes, à 22:20 UTC
Vent 14 kt de ouest
Température 11°C
Humidité 76%
Pression 1004 hPa
Visibilité 10 km ou plus
Nuages épars à une hauteur de 9000 ft

METAR: LICC 032220Z 27014KT 9999 SCT090 11/07 Q1004

Heure: 23:45 (22:45 UTC)

Prévision

Le bulletin a été fait il y a 5 heures et 45 minutes, à 17:00 UTC
Prévision valable du 03 à 18 UTC au 04 à 18 UTC
Vent 8 kt de ouest/sud-ouest
Visibilité: 8000 m
Nuages épars à une hauteur de 3000 ft

TAF: LICC 031700Z 0318/0418 25008KT 8000 SCT030

Observations et prévisions météorologiques de plus de 4000 aéroports (messages METAR et TAF).

Les stations disponibles sont représentées par des disques jaunes et rouges sur la carte.

Passer la souris dessus pour voir le nom de la station.

Cliquer dessus pour voir les observations et prévisions météorologiques.

Pour changer de carte: cliquez sur les boutons verts avec une croix noire pour zoomer, sur le bouton vert avec un tiret pour effectuer un zoom arrière, ou sur les flèches vertes pour les cartes adjacentes.


METAR-TAF: